createdAt,value
2019-01-06T00:01:10.636Z,3.87
2019-01-06T00:04:14.943Z,4.10
2019-01-06T00:07:02.801Z,4.77
2019-01-06T00:09:50.586Z,3.83
2019-01-06T00:12:54.898Z,4.20
2019-01-06T00:15:53.384Z,4.67
2019-01-06T00:18:45.502Z,4.20
2019-01-06T00:21:37.686Z,3.90
2019-01-06T00:24:29.843Z,4.20
2019-01-06T00:27:17.712Z,4.70
2019-01-06T00:30:15.775Z,4.20
2019-01-06T00:33:06.984Z,4.70
2019-01-06T00:35:54.730Z,4.90
2019-01-06T00:38:42.321Z,4.37
2019-01-06T00:41:30.200Z,4.93
2019-01-06T00:44:19.420Z,4.60
2019-01-06T00:47:13.256Z,4.10
2019-01-06T00:50:03.127Z,4.73
2019-01-06T00:52:58.115Z,4.80
2019-01-06T00:55:45.989Z,4.43
2019-01-06T00:58:33.760Z,5.73
2019-01-06T01:01:28.571Z,4.83
2019-01-06T01:04:16.310Z,5.50
2019-01-06T01:07:03.797Z,5.50
2019-01-06T01:09:52.038Z,5.10
2019-01-06T01:12:47.395Z,4.80
2019-01-06T01:15:34.761Z,5.33
2019-01-06T01:18:33.110Z,5.80
2019-01-06T01:21:31.372Z,5.53
2019-01-06T01:24:19.175Z,5.47
2019-01-06T01:27:14.218Z,6.07
2019-01-06T01:30:02.353Z,5.40
2019-01-06T01:32:57.438Z,5.40
2019-01-06T01:36:01.768Z,5.60
2019-01-06T01:38:53.671Z,5.53
2019-01-06T01:41:41.847Z,5.70
2019-01-06T01:44:49.304Z,5.57
2019-01-06T01:47:45.203Z,5.93
2019-01-06T01:50:33.263Z,5.47
2019-01-06T01:53:16.951Z,5.90
2019-01-06T01:56:08.923Z,5.70
2019-01-06T01:59:07.097Z,6.50
2019-01-06T02:01:54.747Z,6.40
2019-01-06T02:04:46.795Z,6.07
2019-01-06T02:07:37.541Z,6.97
2019-01-06T02:10:45.007Z,5.83
2019-01-06T02:13:32.885Z,6.00
2019-01-06T02:16:20.669Z,5.83
2019-01-06T02:19:03.004Z,5.87
2019-01-06T02:22:01.127Z,6.60
2019-01-06T02:24:53.034Z,6.03
2019-01-06T02:27:40.709Z,6.50
2019-01-06T02:30:44.761Z,6.63
2019-01-06T02:33:32.473Z,6.67
2019-01-06T02:36:16.548Z,6.00
2019-01-06T02:39:07.464Z,5.43
2019-01-06T02:41:55.376Z,5.73
2019-01-06T02:44:43.645Z,5.53
2019-01-06T02:47:43.778Z,6.80
2019-01-06T02:50:38.944Z,5.27
2019-01-06T02:53:26.735Z,5.00
2019-01-06T02:56:21.753Z,5.60
2019-01-06T02:59:16.952Z,5.97
2019-01-06T03:02:23.350Z,5.80
2019-01-06T03:05:10.938Z,5.23
2019-01-06T03:08:05.563Z,5.30
2019-01-06T03:10:53.338Z,5.00
2019-01-06T03:13:41.633Z,5.97
2019-01-06T03:16:39.625Z,5.30
2019-01-06T03:19:28.853Z,5.20
2019-01-06T03:22:16.577Z,4.77
2019-01-06T03:25:04.413Z,5.23
2019-01-06T03:27:52.430Z,5.53
2019-01-06T03:30:39.612Z,5.40
2019-01-06T03:33:28.865Z,5.27
2019-01-06T03:36:27.603Z,5.10
2019-01-06T03:39:15.461Z,4.93
2019-01-06T03:42:03.174Z,5.33
2019-01-06T03:44:51.254Z,5.20
2019-01-06T03:47:34.639Z,5.83
2019-01-06T03:50:30.349Z,5.73
2019-01-06T03:53:36.576Z,6.57
2019-01-06T03:56:24.476Z,6.27
2019-01-06T03:59:12.028Z,6.60
2019-01-06T04:02:07.001Z,6.67
2019-01-06T04:04:59.127Z,6.73
2019-01-06T04:07:40.773Z,6.43
2019-01-06T04:10:35.846Z,6.37
2019-01-06T04:13:37.373Z,6.23
2019-01-06T04:16:26.588Z,6.10
2019-01-06T04:19:27.493Z,7.23
2019-01-06T04:22:28.903Z,6.17
2019-01-06T04:25:18.709Z,6.00
2019-01-06T04:28:09.181Z,6.50
2019-01-06T04:31:01.307Z,6.67
2019-01-06T04:33:59.529Z,6.20
2019-01-06T04:36:57.772Z,6.00
2019-01-06T04:40:01.743Z,5.77
2019-01-06T04:42:46.331Z,5.50
2019-01-06T04:45:50.691Z,6.77
2019-01-06T04:48:31.367Z,6.60
2019-01-06T04:51:23.433Z,6.77
2019-01-06T04:54:24.692Z,6.30
2019-01-06T04:57:19.955Z,6.43
2019-01-06T05:00:07.653Z,6.33
2019-01-06T05:03:06.942Z,5.67
2019-01-06T05:06:06.060Z,6.37
2019-01-06T05:08:55.251Z,5.90
2019-01-06T05:11:43.036Z,4.93
2019-01-06T05:14:37.593Z,6.33
2019-01-06T05:17:19.469Z,6.43
2019-01-06T05:20:09.908Z,6.00
2019-01-06T05:22:57.894Z,5.90
2019-01-06T05:25:56.078Z,6.37
2019-01-06T05:28:44.117Z,6.43
2019-01-06T05:31:48.976Z,6.87
2019-01-06T05:34:40.950Z,6.83
2019-01-06T05:37:29.026Z,6.47
2019-01-06T05:40:33.324Z,6.97
2019-01-06T05:43:31.575Z,6.53
2019-01-06T05:46:38.745Z,6.10
2019-01-06T05:49:35.167Z,6.60
2019-01-06T05:52:42.557Z,7.00
2019-01-06T05:55:37.350Z,7.50
2019-01-06T05:58:32.785Z,7.20
2019-01-06T06:01:20.550Z,7.10
2019-01-06T06:04:08.306Z,7.07
2019-01-06T06:06:56.272Z,8.00
2019-01-06T06:09:52.292Z,6.30
2019-01-06T06:12:42.018Z,7.10
2019-01-06T06:15:30.040Z,7.80
2019-01-06T06:18:28.018Z,7.80
2019-01-06T06:21:22.969Z,6.80
2019-01-06T06:24:10.897Z,8.27
2019-01-06T06:26:58.515Z,7.50
2019-01-06T06:29:55.968Z,7.77
2019-01-06T06:32:43.664Z,8.73
2019-01-06T06:35:41.307Z,7.70
2019-01-06T06:38:29.137Z,7.90
2019-01-06T06:41:10.858Z,6.97
2019-01-06T06:44:03.222Z,6.90
2019-01-06T06:46:51.356Z,7.40
2019-01-06T06:49:38.912Z,7.77
2019-01-06T06:52:33.974Z,7.10
2019-01-06T06:55:23.166Z,7.57
2019-01-06T06:58:31.344Z,8.57
2019-01-06T07:01:43.630Z,7.33
2019-01-06T07:04:31.710Z,7.30
2019-01-06T07:07:19.216Z,7.33
2019-01-06T07:10:11.068Z,8.30
2019-01-06T07:12:59.016Z,6.87
2019-01-06T07:15:50.844Z,7.37
2019-01-06T07:18:42.492Z,8.83
2019-01-06T07:21:30.212Z,7.47
2019-01-06T07:24:26.932Z,7.77
2019-01-06T07:27:34.078Z,8.57
2019-01-06T07:30:26.109Z,8.33
2019-01-06T07:33:33.446Z,8.87
2019-01-06T07:36:21.062Z,8.67
2019-01-06T07:39:16.274Z,9.00
2019-01-06T07:42:07.097Z,8.17
2019-01-06T07:45:14.480Z,8.33
2019-01-06T07:47:57.348Z,9.07
2019-01-06T07:50:48.444Z,8.43
2019-01-06T07:53:37.666Z,9.33
2019-01-06T07:56:29.717Z,9.00
2019-01-06T07:59:22.750Z,8.77
2019-01-06T08:02:05.673Z,9.50
2019-01-06T08:04:53.530Z,8.23
2019-01-06T08:07:42.860Z,8.83
2019-01-06T08:10:32.134Z,8.33
2019-01-06T08:13:27.477Z,8.87
2019-01-06T08:16:34.692Z,8.80
2019-01-06T08:19:36.316Z,8.20
2019-01-06T08:22:40.812Z,7.93
2019-01-06T08:25:30.348Z,9.70
2019-01-06T08:28:18.537Z,8.73
2019-01-06T08:31:04.623Z,9.17
2019-01-06T08:33:54.089Z,8.03
2019-01-06T08:36:42.414Z,9.23
2019-01-06T08:39:34.423Z,9.47
2019-01-06T08:42:26.540Z,9.30
2019-01-06T08:45:18.691Z,9.30
2019-01-06T08:48:05.302Z,10.07
2019-01-06T08:51:06.674Z,9.70
2019-01-06T08:53:55.044Z,8.53
2019-01-06T08:56:44.603Z,9.13
2019-01-06T08:59:32.804Z,8.03
2019-01-06T09:02:25.760Z,9.37
2019-01-06T09:05:08.511Z,8.90
2019-01-06T09:08:00.889Z,8.57
2019-01-06T09:10:56.149Z,8.70
2019-01-06T09:13:48.534Z,8.97
2019-01-06T09:16:36.584Z,8.30
2019-01-06T09:19:24.696Z,8.43
2019-01-06T09:22:12.559Z,7.83
2019-01-06T09:25:11.075Z,8.70
2019-01-06T09:27:59.231Z,7.90
2019-01-06T09:30:48.693Z,8.73
2019-01-06T09:33:47.027Z,8.10
2019-01-06T09:36:48.553Z,7.80
2019-01-06T09:39:38.163Z,8.17
2019-01-06T09:42:27.815Z,8.70
2019-01-06T09:45:24.895Z,8.57
2019-01-06T09:48:12.943Z,6.83
2019-01-06T09:51:08.144Z,7.40
2019-01-06T09:54:15.986Z,7.47
2019-01-06T09:57:15.055Z,6.17
2019-01-06T10:00:16.565Z,6.13
2019-01-06T10:03:11.781Z,5.93
2019-01-06T10:06:19.137Z,6.00
2019-01-06T10:09:22.553Z,5.20
2019-01-06T10:12:20.903Z,5.80
2019-01-06T10:15:10.669Z,5.07
2019-01-06T10:17:59.865Z,5.23
2019-01-06T10:21:04.038Z,5.27
2019-01-06T10:24:02.194Z,3.90
2019-01-06T10:26:53.387Z,4.67
2019-01-06T10:29:51.936Z,7.03
2019-01-06T10:32:42.480Z,4.07
2019-01-06T10:35:36.693Z,4.00
2019-01-06T10:38:26.952Z,3.73
2019-01-06T10:41:21.999Z,3.50
2019-01-06T10:44:09.997Z,3.23
2019-01-06T10:47:14.878Z,3.80
2019-01-06T10:50:04.506Z,5.87
2019-01-06T10:53:01.760Z,4.97
2019-01-06T10:55:49.553Z,4.43
2019-01-06T10:58:37.616Z,4.13
2019-01-06T11:01:38.850Z,3.60
2019-01-06T11:04:40.398Z,3.40
2019-01-06T11:07:28.509Z,3.63
2019-01-06T11:10:27.281Z,3.37
2019-01-06T11:13:27.876Z,4.17
2019-01-06T11:16:26.093Z,2.40
2019-01-06T11:19:13.871Z,3.37
2019-01-06T11:22:05.000Z,3.50
2019-01-06T11:25:00.467Z,3.57
2019-01-06T11:27:55.058Z,2.20
2019-01-06T11:30:56.307Z,2.10
2019-01-06T11:33:57.902Z,2.00
2019-01-06T11:36:59.153Z,2.03
2019-01-06T11:39:54.392Z,2.00
2019-01-06T11:42:46.085Z,2.10
2019-01-06T11:45:40.891Z,2.33
2019-01-06T11:48:30.733Z,1.73
2019-01-06T11:51:29.117Z,2.20
2019-01-06T11:54:20.985Z,1.77
2019-01-06T11:57:30.277Z,1.90
2019-01-06T12:00:09.393Z,2.03
2019-01-06T12:03:01.591Z,2.93
2019-01-06T12:05:53.881Z,2.47
2019-01-06T12:08:41.919Z,1.80
2019-01-06T12:11:50.293Z,1.90
2019-01-06T12:14:40.025Z,2.13
2019-01-06T12:17:41.435Z,1.90
2019-01-06T12:20:30.735Z,2.23
2019-01-06T12:23:18.415Z,2.20
2019-01-06T12:26:13.590Z,1.87
2019-01-06T12:29:01.511Z,1.50
2019-01-06T12:32:02.958Z,2.13
2019-01-06T12:35:01.091Z,2.10
2019-01-06T12:37:51.204Z,1.50
2019-01-06T12:40:49.430Z,1.70
2019-01-06T12:43:45.755Z,2.20
2019-01-06T12:46:47.096Z,1.70
2019-01-06T12:49:42.364Z,2.70
2019-01-06T12:52:31.709Z,2.40
2019-01-06T12:55:20.969Z,2.23
2019-01-06T12:58:13.037Z,2.50
2019-01-06T13:01:14.426Z,1.97
2019-01-06T13:04:02.449Z,1.70
2019-01-06T13:06:51.925Z,1.37
2019-01-06T13:09:42.454Z,1.47
2019-01-06T13:12:30.267Z,1.20
2019-01-06T13:15:31.858Z,1.20
2019-01-06T13:18:20.085Z,1.60
2019-01-06T13:21:05.266Z,1.10
2019-01-06T13:24:06.506Z,1.30
2019-01-06T13:27:02.812Z,1.53
2019-01-06T13:29:52.170Z,1.47
2019-01-06T13:32:50.248Z,1.73
2019-01-06T13:35:45.871Z,1.60
2019-01-06T13:38:44.166Z,1.53
2019-01-06T13:41:39.174Z,2.27
2019-01-06T13:44:28.496Z,1.70
2019-01-06T13:47:12.531Z,2.03
2019-01-06T13:50:10.358Z,2.17
2019-01-06T13:53:05.554Z,2.07
2019-01-06T13:56:09.899Z,2.80
2019-01-06T13:58:58.118Z,2.97
2019-01-06T14:01:52.994Z,2.73
2019-01-06T14:04:41.763Z,3.33
2019-01-06T14:07:39.960Z,2.53
2019-01-06T14:10:22.882Z,2.93
2019-01-06T14:13:17.811Z,2.83
2019-01-06T14:16:05.852Z,3.23
2019-01-06T14:18:50.603Z,3.07
2019-01-06T14:21:48.840Z,2.73
2019-01-06T14:24:36.814Z,2.50
2019-01-06T14:27:24.759Z,2.23
2019-01-06T14:30:32.060Z,2.97
2019-01-06T14:33:20.089Z,2.30
2019-01-06T14:36:09.417Z,2.17
2019-01-06T14:39:10.787Z,2.13
2019-01-06T14:42:00.488Z,1.83
2019-01-06T14:44:51.748Z,2.07
2019-01-06T14:48:00.496Z,1.90
2019-01-06T14:50:49.748Z,2.00
2019-01-06T14:54:08.532Z,2.13
2019-01-06T14:57:00.536Z,2.33
2019-01-06T14:59:48.568Z,2.60
2019-01-06T15:02:36.532Z,2.80
2019-01-06T15:05:22.050Z,2.63
2019-01-06T15:08:26.595Z,2.60
2019-01-06T15:11:22.039Z,3.07
2019-01-06T15:14:14.023Z,3.17
2019-01-06T15:17:00.008Z,3.40
2019-01-06T15:19:49.188Z,3.40
2019-01-06T15:22:41.299Z,3.23
2019-01-06T15:25:35.480Z,3.03
2019-01-06T15:28:23.157Z,4.73
2019-01-06T15:31:15.069Z,5.27
2019-01-06T15:34:04.211Z,3.43
2019-01-06T15:36:59.250Z,3.67
2019-01-06T15:39:48.390Z,3.30
2019-01-06T15:42:41.026Z,3.00
2019-01-06T15:45:35.105Z,3.10
2019-01-06T15:48:24.378Z,2.97
2019-01-06T15:51:12.485Z,3.27
2019-01-06T15:54:10.518Z,3.43
2019-01-06T15:57:14.860Z,4.20
2019-01-06T16:00:02.037Z,4.30
2019-01-06T16:02:57.335Z,3.33
2019-01-06T16:05:47.721Z,3.43
2019-01-06T16:08:39.981Z,3.47
2019-01-06T16:11:38.171Z,3.20
2019-01-06T16:14:39.509Z,3.63
2019-01-06T16:17:34.975Z,3.70
2019-01-06T16:20:27.335Z,2.40
2019-01-06T16:23:15.229Z,2.77
2019-01-06T16:26:03.058Z,2.57
2019-01-06T16:28:51.161Z,3.23
2019-01-06T16:31:42.899Z,3.10
2019-01-06T16:34:30.724Z,3.20
2019-01-06T16:37:18.719Z,3.47
2019-01-06T16:40:06.466Z,3.77
2019-01-06T16:43:01.850Z,4.53
2019-01-06T16:45:56.986Z,5.23
2019-01-06T16:48:44.665Z,4.70
2019-01-06T16:51:42.583Z,4.70
2019-01-06T16:54:31.829Z,5.10
2019-01-06T16:57:19.479Z,4.37
2019-01-06T17:00:05.888Z,4.00
2019-01-06T17:02:53.750Z,4.03
2019-01-06T17:05:41.656Z,4.90
2019-01-06T17:08:46.075Z,4.50
2019-01-06T17:11:42.929Z,4.40
2019-01-06T17:14:41.090Z,5.57
2019-01-06T17:17:36.207Z,5.20
2019-01-06T17:20:35.883Z,4.07
2019-01-06T17:23:43.491Z,4.57
2019-01-06T17:26:27.651Z,4.43
2019-01-06T17:29:15.622Z,4.90
2019-01-06T17:32:10.877Z,3.77
2019-01-06T17:34:58.951Z,4.27
2019-01-06T17:37:47.421Z,4.77
2019-01-06T17:40:36.678Z,4.20
2019-01-06T17:43:26.991Z,3.37
2019-01-06T17:46:28.195Z,4.07
2019-01-06T17:49:20.041Z,3.57
2019-01-06T17:52:08.094Z,4.10
2019-01-06T17:55:00.172Z,3.00
2019-01-06T17:57:47.973Z,2.80
2019-01-06T18:00:35.776Z,3.00
2019-01-06T18:03:26.518Z,2.93
2019-01-06T18:06:28.013Z,3.50
2019-01-06T18:09:26.281Z,3.23
2019-01-06T18:12:11.201Z,3.43
2019-01-06T18:14:58.928Z,3.80
2019-01-06T18:18:00.119Z,3.50
2019-01-06T18:20:48.438Z,3.53
2019-01-06T18:23:52.835Z,4.73
2019-01-06T18:26:40.713Z,3.90
2019-01-06T18:29:28.847Z,3.87
2019-01-06T18:32:32.969Z,3.90
2019-01-06T18:35:28.217Z,4.90
2019-01-06T18:38:11.810Z,5.63
2019-01-06T18:41:16.081Z,6.10
2019-01-06T18:44:05.896Z,5.57
2019-01-06T18:46:53.862Z,5.00
2019-01-06T18:49:42.452Z,4.93
2019-01-06T18:52:43.689Z,4.30
2019-01-06T18:55:35.726Z,4.03
2019-01-06T18:58:23.511Z,4.33
2019-01-06T19:01:11.653Z,4.13
2019-01-06T19:03:59.547Z,4.23
2019-01-06T19:06:51.534Z,4.20
2019-01-06T19:09:58.887Z,4.30
2019-01-06T19:12:49.644Z,4.47
2019-01-06T19:15:35.181Z,5.20
2019-01-06T19:18:24.203Z,6.73
2019-01-06T19:21:15.048Z,6.77
2019-01-06T19:24:22.563Z,6.80
2019-01-06T19:27:10.541Z,7.17
2019-01-06T19:29:59.815Z,5.53
2019-01-06T19:32:57.996Z,5.90
2019-01-06T19:35:47.357Z,5.70
2019-01-06T19:38:35.334Z,5.53
2019-01-06T19:41:27.203Z,5.97
2019-01-06T19:44:34.549Z,5.87
2019-01-06T19:47:22.541Z,6.80
2019-01-06T19:50:11.817Z,7.17
2019-01-06T19:53:06.851Z,7.17
2019-01-06T19:56:14.037Z,7.20
2019-01-06T19:59:06.081Z,7.73
2019-01-06T20:01:57.030Z,7.93
2019-01-06T20:04:47.731Z,8.07
2019-01-06T20:07:41.641Z,8.37
2019-01-06T20:10:45.899Z,7.63
2019-01-06T20:13:33.884Z,6.90
2019-01-06T20:16:21.727Z,7.07
2019-01-06T20:19:20.922Z,5.67
2019-01-06T20:22:10.203Z,5.47
2019-01-06T20:24:53.303Z,4.23
2019-01-06T20:27:41.235Z,4.67
2019-01-06T20:30:45.733Z,4.40
2019-01-06T20:33:52.200Z,5.40
2019-01-06T20:36:40.115Z,4.30
2019-01-06T20:39:44.899Z,5.47
2019-01-06T20:42:41.774Z,5.33
2019-01-06T20:45:29.496Z,4.03
2019-01-06T20:48:18.468Z,4.57
2019-01-06T20:51:06.274Z,4.67
2019-01-06T20:54:10.887Z,5.00
2019-01-06T20:57:09.429Z,4.77
2019-01-06T20:59:58.754Z,5.47
2019-01-06T21:02:56.996Z,5.87
2019-01-06T21:05:56.531Z,6.20
2019-01-06T21:08:53.064Z,6.30
2019-01-06T21:11:50.691Z,7.07
2019-01-06T21:14:52.242Z,7.27
2019-01-06T21:17:40.183Z,7.37
2019-01-06T21:20:29.388Z,8.00
2019-01-06T21:23:18.688Z,7.27
2019-01-06T21:26:10.964Z,6.50
2019-01-06T21:29:03.264Z,8.27
2019-01-06T21:31:55.454Z,7.37
2019-01-06T21:34:56.823Z,8.00
2019-01-06T21:37:48.833Z,8.43
2019-01-06T21:40:48.663Z,8.17
2019-01-06T21:43:46.920Z,8.93
2019-01-06T21:46:45.137Z,9.07
2019-01-06T21:49:36.969Z,9.70
2019-01-06T21:52:32.036Z,8.40
2019-01-06T21:55:36.333Z,8.50
2019-01-06T21:58:31.462Z,9.10
2019-01-06T22:01:21.088Z,9.10
2019-01-06T22:04:10.398Z,9.17
2019-01-06T22:06:59.720Z,8.00
2019-01-06T22:09:52.974Z,8.60
2019-01-06T22:12:48.004Z,8.30
2019-01-06T22:15:28.015Z,8.47
2019-01-06T22:18:23.549Z,8.50
2019-01-06T22:21:11.602Z,8.40
2019-01-06T22:24:09.924Z,8.50
2019-01-06T22:27:11.233Z,8.83
2019-01-06T22:30:00.508Z,8.97
2019-01-06T22:33:04.860Z,8.67
2019-01-06T22:36:08.940Z,9.57
2019-01-06T22:38:58.142Z,9.70
2019-01-06T22:41:45.978Z,9.43
2019-01-06T22:44:34.170Z,10.93
2019-01-06T22:47:26.404Z,9.50
2019-01-06T22:50:23.632Z,11.43
2019-01-06T22:53:14.189Z,10.43
2019-01-06T22:56:18.499Z,10.53
2019-01-06T22:59:13.735Z,10.93
2019-01-06T23:02:01.786Z,10.40
2019-01-06T23:05:03.170Z,11.63
2019-01-06T23:08:01.128Z,10.83
2019-01-06T23:10:59.468Z,12.00
2019-01-06T23:13:47.387Z,10.53
2019-01-06T23:16:35.426Z,11.57
2019-01-06T23:19:27.600Z,10.13
2019-01-06T23:22:15.693Z,10.77
2019-01-06T23:25:04.301Z,10.60
2019-01-06T23:27:59.352Z,10.50
2019-01-06T23:30:43.260Z,10.53
2019-01-06T23:33:41.572Z,11.03
2019-01-06T23:36:29.404Z,10.33
2019-01-06T23:39:18.648Z,11.13
2019-01-06T23:42:06.626Z,11.37
2019-01-06T23:44:54.479Z,10.57
2019-01-06T23:47:42.318Z,11.63
2019-01-06T23:50:21.809Z,11.33
2019-01-06T23:53:13.848Z,11.37
2019-01-06T23:56:05.874Z,11.27
2019-01-06T23:58:53.939Z,10.80
